sensor_id;sensor_type;location;lat;lon;timestamp;P1;durP1;ratioP1;P2;durP2;ratioP2
14837;SDS011;7510;59.296;18.106;2022-09-03T00:00:31;4.63;;;2.17;;
14837;SDS011;7510;59.296;18.106;2022-09-03T00:03:03;4.30;;;2.40;;
14837;SDS011;7510;59.296;18.106;2022-09-03T00:05:36;5.83;;;2.00;;
14837;SDS011;7510;59.296;18.106;2022-09-03T00:10:52;3.60;;;2.10;;
14837;SDS011;7510;59.296;18.106;2022-09-03T00:13:32;7.37;;;2.40;;
14837;SDS011;7510;59.296;18.106;2022-09-03T00:16:02;4.20;;;2.20;;
14837;SDS011;7510;59.296;18.106;2022-09-03T00:18:34;8.83;;;2.43;;
14837;SDS011;7510;59.296;18.106;2022-09-03T00:21:08;3.27;;;2.20;;
14837;SDS011;7510;59.296;18.106;2022-09-03T00:23:40;3.07;;;2.20;;
14837;SDS011;7510;59.296;18.106;2022-09-03T00:29:11;3.13;;;1.90;;
14837;SDS011;7510;59.296;18.106;2022-09-03T00:31:44;5.30;;;1.90;;
14837;SDS011;7510;59.296;18.106;2022-09-03T00:34:22;2.70;;;2.07;;
14837;SDS011;7510;59.296;18.106;2022-09-03T00:37:09;3.07;;;1.73;;
14837;SDS011;7510;59.296;18.106;2022-09-03T00:39:36;4.00;;;2.03;;
14837;SDS011;7510;59.296;18.106;2022-09-03T00:47:29;3.13;;;2.10;;
14837;SDS011;7510;59.296;18.106;2022-09-03T00:55:51;2.63;;;1.90;;
14837;SDS011;7510;59.296;18.106;2022-09-03T01:04:40;2.90;;;1.90;;
14837;SDS011;7510;59.296;18.106;2022-09-03T01:09:58;3.57;;;2.20;;
14837;SDS011;7510;59.296;18.106;2022-09-03T01:15:12;3.63;;;2.13;;
14837;SDS011;7510;59.296;18.106;2022-09-03T01:28:38;8.17;;;2.97;;
14837;SDS011;7510;59.296;18.106;2022-09-03T01:31:23;5.17;;;2.60;;
14837;SDS011;7510;59.296;18.106;2022-09-03T01:34:19;4.87;;;2.97;;
14837;SDS011;7510;59.296;18.106;2022-09-03T01:42:38;6.67;;;2.73;;
14837;SDS011;7510;59.296;18.106;2022-09-03T01:50:53;5.20;;;2.40;;
14837;SDS011;7510;59.296;18.106;2022-09-03T01:59:29;3.50;;;2.63;;
14837;SDS011;7510;59.296;18.106;2022-09-03T02:02:23;5.63;;;3.00;;
14837;SDS011;7510;59.296;18.106;2022-09-03T02:04:57;3.87;;;2.70;;
14837;SDS011;7510;59.296;18.106;2022-09-03T02:07:26;4.10;;;2.40;;
14837;SDS011;7510;59.296;18.106;2022-09-03T02:09:58;9.43;;;3.13;;
14837;SDS011;7510;59.296;18.106;2022-09-03T02:12:25;4.93;;;2.47;;
14837;SDS011;7510;59.296;18.106;2022-09-03T02:14:52;2.70;;;2.27;;
14837;SDS011;7510;59.296;18.106;2022-09-03T02:17:20;6.13;;;2.47;;
14837;SDS011;7510;59.296;18.106;2022-09-03T02:19:45;3.93;;;2.90;;
14837;SDS011;7510;59.296;18.106;2022-09-03T02:22:11;5.57;;;2.57;;
14837;SDS011;7510;59.296;18.106;2022-09-03T02:24:37;3.97;;;2.43;;
14837;SDS011;7510;59.296;18.106;2022-09-03T02:27:02;4.00;;;2.53;;
14837;SDS011;7510;59.296;18.106;2022-09-03T02:29:28;5.73;;;2.43;;
14837;SDS011;7510;59.296;18.106;2022-09-03T02:31:54;4.97;;;2.47;;
14837;SDS011;7510;59.296;18.106;2022-09-03T02:34:20;6.40;;;2.70;;
14837;SDS011;7510;59.296;18.106;2022-09-03T02:36:45;4.33;;;2.30;;
14837;SDS011;7510;59.296;18.106;2022-09-03T02:39:12;4.93;;;2.53;;
14837;SDS011;7510;59.296;18.106;2022-09-03T02:41:38;3.60;;;2.50;;
14837;SDS011;7510;59.296;18.106;2022-09-03T02:44:08;3.30;;;2.57;;
14837;SDS011;7510;59.296;18.106;2022-09-03T02:46:49;7.17;;;2.50;;
14837;SDS011;7510;59.296;18.106;2022-09-03T02:49:19;6.63;;;2.60;;
14837;SDS011;7510;59.296;18.106;2022-09-03T02:51:44;3.77;;;2.80;;
14837;SDS011;7510;59.296;18.106;2022-09-03T02:54:10;4.33;;;2.60;;
14837;SDS011;7510;59.296;18.106;2022-09-03T02:56:36;4.13;;;2.60;;
14837;SDS011;7510;59.296;18.106;2022-09-03T02:59:03;7.43;;;2.77;;
14837;SDS011;7510;59.296;18.106;2022-09-03T03:01:30;6.37;;;2.70;;
14837;SDS011;7510;59.296;18.106;2022-09-03T03:03:56;3.10;;;2.60;;
14837;SDS011;7510;59.296;18.106;2022-09-03T03:06:21;7.93;;;2.73;;
14837;SDS011;7510;59.296;18.106;2022-09-03T03:08:48;5.70;;;2.43;;
14837;SDS011;7510;59.296;18.106;2022-09-03T03:11:14;3.30;;;2.27;;
14837;SDS011;7510;59.296;18.106;2022-09-03T03:13:42;6.40;;;2.33;;
14837;SDS011;7510;59.296;18.106;2022-09-03T03:16:09;6.83;;;2.63;;
14837;SDS011;7510;59.296;18.106;2022-09-03T03:18:34;6.00;;;2.33;;
14837;SDS011;7510;59.296;18.106;2022-09-03T03:21:07;4.90;;;2.50;;
14837;SDS011;7510;59.296;18.106;2022-09-03T03:23:34;6.13;;;2.57;;
14837;SDS011;7510;59.296;18.106;2022-09-03T03:26:01;3.23;;;2.43;;
14837;SDS011;7510;59.296;18.106;2022-09-03T03:28:27;6.40;;;2.50;;
14837;SDS011;7510;59.296;18.106;2022-09-03T03:30:58;8.40;;;2.67;;
14837;SDS011;7510;59.296;18.106;2022-09-03T03:33:29;6.80;;;2.83;;
14837;SDS011;7510;59.296;18.106;2022-09-03T03:35:55;5.60;;;2.80;;
14837;SDS011;7510;59.296;18.106;2022-09-03T03:38:20;8.87;;;2.53;;
14837;SDS011;7510;59.296;18.106;2022-09-03T03:40:45;6.43;;;2.27;;
14837;SDS011;7510;59.296;18.106;2022-09-03T03:43:11;6.93;;;2.73;;
14837;SDS011;7510;59.296;18.106;2022-09-03T03:45:36;4.23;;;2.20;;
14837;SDS011;7510;59.296;18.106;2022-09-03T03:48:02;3.67;;;2.53;;
14837;SDS011;7510;59.296;18.106;2022-09-03T03:50:27;4.97;;;2.40;;
14837;SDS011;7510;59.296;18.106;2022-09-03T03:52:53;7.50;;;2.70;;
14837;SDS011;7510;59.296;18.106;2022-09-03T03:55:18;4.07;;;2.60;;
14837;SDS011;7510;59.296;18.106;2022-09-03T03:57:43;5.00;;;2.67;;
14837;SDS011;7510;59.296;18.106;2022-09-03T04:00:09;3.67;;;2.30;;
14837;SDS011;7510;59.296;18.106;2022-09-03T04:02:35;3.27;;;2.47;;
14837;SDS011;7510;59.296;18.106;2022-09-03T04:05:00;5.33;;;2.27;;
14837;SDS011;7510;59.296;18.106;2022-09-03T04:07:25;5.00;;;2.10;;
14837;SDS011;7510;59.296;18.106;2022-09-03T04:09:51;3.20;;;2.00;;
14837;SDS011;7510;59.296;18.106;2022-09-03T04:12:16;5.53;;;2.90;;
14837;SDS011;7510;59.296;18.106;2022-09-03T04:14:43;5.27;;;2.17;;
14837;SDS011;7510;59.296;18.106;2022-09-03T04:17:08;3.13;;;2.30;;
14837;SDS011;7510;59.296;18.106;2022-09-03T04:19:34;4.67;;;2.20;;
14837;SDS011;7510;59.296;18.106;2022-09-03T04:21:59;4.87;;;2.23;;
14837;SDS011;7510;59.296;18.106;2022-09-03T04:24:24;5.60;;;2.47;;
14837;SDS011;7510;59.296;18.106;2022-09-03T04:26:51;2.73;;;2.10;;
14837;SDS011;7510;59.296;18.106;2022-09-03T04:29:18;2.90;;;2.10;;
14837;SDS011;7510;59.296;18.106;2022-09-03T04:31:43;2.97;;;2.00;;
14837;SDS011;7510;59.296;18.106;2022-09-03T04:34:28;7.17;;;2.10;;
14837;SDS011;7510;59.296;18.106;2022-09-03T04:36:54;3.27;;;1.97;;
14837;SDS011;7510;59.296;18.106;2022-09-03T04:39:21;5.07;;;2.50;;
14837;SDS011;7510;59.296;18.106;2022-09-03T04:41:46;3.87;;;2.30;;
14837;SDS011;7510;59.296;18.106;2022-09-03T04:44:12;2.70;;;2.00;;
14837;SDS011;7510;59.296;18.106;2022-09-03T04:46:37;2.60;;;1.93;;
14837;SDS011;7510;59.296;18.106;2022-09-03T04:49:04;2.37;;;1.80;;
14837;SDS011;7510;59.296;18.106;2022-09-03T04:51:31;4.43;;;2.17;;
14837;SDS011;7510;59.296;18.106;2022-09-03T04:53:57;3.73;;;1.90;;
14837;SDS011;7510;59.296;18.106;2022-09-03T04:56:28;4.07;;;2.17;;
14837;SDS011;7510;59.296;18.106;2022-09-03T04:58:56;2.90;;;2.20;;
14837;SDS011;7510;59.296;18.106;2022-09-03T05:01:30;5.20;;;1.90;;
14837;SDS011;7510;59.296;18.106;2022-09-03T05:03:57;2.07;;;1.87;;
14837;SDS011;7510;59.296;18.106;2022-09-03T05:06:24;4.80;;;1.73;;
14837;SDS011;7510;59.296;18.106;2022-09-03T05:08:50;2.67;;;1.10;;
14837;SDS011;7510;59.296;18.106;2022-09-03T05:11:18;2.83;;;1.33;;
14837;SDS011;7510;59.296;18.106;2022-09-03T05:13:51;1.67;;;1.00;;
14837;SDS011;7510;59.296;18.106;2022-09-03T05:16:18;1.27;;;1.00;;
14837;SDS011;7510;59.296;18.106;2022-09-03T05:18:44;1.90;;;0.90;;
14837;SDS011;7510;59.296;18.106;2022-09-03T05:21:14;7.20;;;1.37;;
14837;SDS011;7510;59.296;18.106;2022-09-03T05:23:42;4.87;;;1.00;;
14837;SDS011;7510;59.296;18.106;2022-09-03T05:26:10;4.70;;;1.13;;
14837;SDS011;7510;59.296;18.106;2022-09-03T05:28:46;3.80;;;1.30;;
14837;SDS011;7510;59.296;18.106;2022-09-03T05:31:14;3.07;;;1.00;;
14837;SDS011;7510;59.296;18.106;2022-09-03T05:33:44;1.47;;;0.90;;
14837;SDS011;7510;59.296;18.106;2022-09-03T05:36:12;0.97;;;0.73;;
14837;SDS011;7510;59.296;18.106;2022-09-03T05:38:40;1.40;;;0.80;;
14837;SDS011;7510;59.296;18.106;2022-09-03T05:41:07;0.83;;;0.60;;
14837;SDS011;7510;59.296;18.106;2022-09-03T05:43:34;2.40;;;0.90;;
14837;SDS011;7510;59.296;18.106;2022-09-03T05:46:10;1.37;;;0.77;;
14837;SDS011;7510;59.296;18.106;2022-09-03T05:48:42;1.13;;;0.60;;
14837;SDS011;7510;59.296;18.106;2022-09-03T05:51:09;1.53;;;0.60;;
14837;SDS011;7510;59.296;18.106;2022-09-03T05:53:40;0.60;;;0.60;;
14837;SDS011;7510;59.296;18.106;2022-09-03T05:56:08;1.87;;;1.10;;
14837;SDS011;7510;59.296;18.106;2022-09-03T05:58:36;2.83;;;1.20;;
14837;SDS011;7510;59.296;18.106;2022-09-03T06:01:10;0.80;;;0.50;;
14837;SDS011;7510;59.296;18.106;2022-09-03T06:03:38;1.33;;;0.53;;
14837;SDS011;7510;59.296;18.106;2022-09-03T06:06:04;0.50;;;0.47;;
14837;SDS011;7510;59.296;18.106;2022-09-03T06:08:32;1.07;;;0.43;;
14837;SDS011;7510;59.296;18.106;2022-09-03T06:11:00;1.43;;;0.60;;
14837;SDS011;7510;59.296;18.106;2022-09-03T06:13:27;1.63;;;0.50;;
14837;SDS011;7510;59.296;18.106;2022-09-03T06:16:12;1.60;;;0.50;;
14837;SDS011;7510;59.296;18.106;2022-09-03T06:18:38;0.60;;;0.60;;
14837;SDS011;7510;59.296;18.106;2022-09-03T06:21:05;2.20;;;0.40;;
14837;SDS011;7510;59.296;18.106;2022-09-03T06:23:31;2.10;;;0.50;;
14837;SDS011;7510;59.296;18.106;2022-09-03T06:28:32;0.50;;;0.40;;
14837;SDS011;7510;59.296;18.106;2022-09-03T06:30:59;4.23;;;0.40;;
14837;SDS011;7510;59.296;18.106;2022-09-03T06:33:25;1.53;;;0.40;;
14837;SDS011;7510;59.296;18.106;2022-09-03T06:35:54;0.75;;;0.50;;
14837;SDS011;7510;59.296;18.106;2022-09-03T06:38:22;5.53;;;0.85;;
14837;SDS011;7510;59.296;18.106;2022-09-03T06:40:56;1.50;;;0.90;;
14837;SDS011;7510;59.296;18.106;2022-09-03T06:43:26;3.90;;;0.88;;
14837;SDS011;7510;59.296;18.106;2022-09-03T06:45:53;1.98;;;1.10;;
14837;SDS011;7510;59.296;18.106;2022-09-03T06:48:23;6.22;;;1.60;;
14837;SDS011;7510;59.296;18.106;2022-09-03T06:50:56;0.68;;;0.68;;
14837;SDS011;7510;59.296;18.106;2022-09-03T06:53:23;0.88;;;0.88;;
14837;SDS011;7510;59.296;18.106;2022-09-03T06:55:54;1.50;;;0.70;;
14837;SDS011;7510;59.296;18.106;2022-09-03T06:58:20;1.83;;;0.82;;
14837;SDS011;7510;59.296;18.106;2022-09-03T07:00:47;1.35;;;0.40;;
14837;SDS011;7510;59.296;18.106;2022-09-03T07:03:13;1.88;;;0.50;;
14837;SDS011;7510;59.296;18.106;2022-09-03T07:05:42;0.38;;;0.30;;
14837;SDS011;7510;59.296;18.106;2022-09-03T07:08:08;1.02;;;0.45;;
14837;SDS011;7510;59.296;18.106;2022-09-03T07:10:37;1.85;;;0.50;;
14837;SDS011;7510;59.296;18.106;2022-09-03T07:13:03;0.90;;;0.50;;
14837;SDS011;7510;59.296;18.106;2022-09-03T07:15:31;0.73;;;0.50;;
14837;SDS011;7510;59.296;18.106;2022-09-03T07:17:57;1.65;;;0.43;;
14837;SDS011;7510;59.296;18.106;2022-09-03T07:20:23;0.20;;;0.20;;
14837;SDS011;7510;59.296;18.106;2022-09-03T07:22:48;1.10;;;0.40;;
14837;SDS011;7510;59.296;18.106;2022-09-03T07:25:13;3.70;;;0.52;;
14837;SDS011;7510;59.296;18.106;2022-09-03T07:27:39;2.28;;;0.43;;
14837;SDS011;7510;59.296;18.106;2022-09-03T07:30:04;0.50;;;0.50;;
14837;SDS011;7510;59.296;18.106;2022-09-03T07:32:33;0.65;;;0.30;;
14837;SDS011;7510;59.296;18.106;2022-09-03T07:35:00;2.72;;;0.52;;
14837;SDS011;7510;59.296;18.106;2022-09-03T07:37:26;1.75;;;0.60;;
14837;SDS011;7510;59.296;18.106;2022-09-03T07:39:51;2.92;;;1.35;;
14837;SDS011;7510;59.296;18.106;2022-09-03T07:42:18;2.00;;;0.60;;
14837;SDS011;7510;59.296;18.106;2022-09-03T07:44:44;4.57;;;0.70;;
14837;SDS011;7510;59.296;18.106;2022-09-03T07:47:09;1.75;;;0.70;;
14837;SDS011;7510;59.296;18.106;2022-09-03T07:49:35;0.93;;;0.35;;
14837;SDS011;7510;59.296;18.106;2022-09-03T07:52:00;2.20;;;0.70;;
14837;SDS011;7510;59.296;18.106;2022-09-03T07:54:26;3.38;;;0.80;;
14837;SDS011;7510;59.296;18.106;2022-09-03T07:56:51;1.23;;;0.90;;
14837;SDS011;7510;59.296;18.106;2022-09-03T07:59:17;1.52;;;1.42;;
14837;SDS011;7510;59.296;18.106;2022-09-03T08:01:44;4.10;;;1.75;;
14837;SDS011;7510;59.296;18.106;2022-09-03T08:04:09;1.33;;;0.90;;
14837;SDS011;7510;59.296;18.106;2022-09-03T08:06:36;1.60;;;0.70;;
14837;SDS011;7510;59.296;18.106;2022-09-03T08:09:04;0.43;;;0.40;;
14837;SDS011;7510;59.296;18.106;2022-09-03T08:11:33;0.63;;;0.52;;
14837;SDS011;7510;59.296;18.106;2022-09-03T08:14:02;2.75;;;0.90;;
14837;SDS011;7510;59.296;18.106;2022-09-03T08:16:31;3.00;;;0.70;;
14837;SDS011;7510;59.296;18.106;2022-09-03T08:18:58;0.55;;;0.47;;
14837;SDS011;7510;59.296;18.106;2022-09-03T08:21:24;1.10;;;0.40;;
14837;SDS011;7510;59.296;18.106;2022-09-03T08:23:51;1.23;;;0.82;;
14837;SDS011;7510;59.296;18.106;2022-09-03T08:26:19;1.23;;;0.30;;
14837;SDS011;7510;59.296;18.106;2022-09-03T08:28:46;0.40;;;0.40;;
14837;SDS011;7510;59.296;18.106;2022-09-03T08:31:12;1.53;;;0.47;;
14837;SDS011;7510;59.296;18.106;2022-09-03T08:33:40;2.93;;;0.60;;
14837;SDS011;7510;59.296;18.106;2022-09-03T08:38:34;0.63;;;0.47;;
14837;SDS011;7510;59.296;18.106;2022-09-03T08:41:04;7.53;;;0.97;;
14837;SDS011;7510;59.296;18.106;2022-09-03T08:43:31;0.60;;;0.50;;
14837;SDS011;7510;59.296;18.106;2022-09-03T08:46:14;0.43;;;0.32;;
14837;SDS011;7510;59.296;18.106;2022-09-03T08:48:40;0.40;;;0.20;;
14837;SDS011;7510;59.296;18.106;2022-09-03T08:51:06;0.65;;;0.60;;
14837;SDS011;7510;59.296;18.106;2022-09-03T08:56:11;0.40;;;0.40;;
14837;SDS011;7510;59.296;18.106;2022-09-03T08:58:44;0.45;;;0.45;;
14837;SDS011;7510;59.296;18.106;2022-09-03T09:01:22;1.40;;;0.95;;
14837;SDS011;7510;59.296;18.106;2022-09-03T09:09:54;1.77;;;1.67;;
14837;SDS011;7510;59.296;18.106;2022-09-03T09:12:34;1.83;;;1.73;;
14837;SDS011;7510;59.296;18.106;2022-09-03T09:15:27;1.77;;;1.67;;
14837;SDS011;7510;59.296;18.106;2022-09-03T09:18:13;1.88;;;1.20;;
14837;SDS011;7510;59.296;18.106;2022-09-03T09:21:08;0.63;;;0.63;;
14837;SDS011;7510;59.296;18.106;2022-09-03T09:23:39;0.60;;;0.57;;
14837;SDS011;7510;59.296;18.106;2022-09-03T09:26:09;1.30;;;0.60;;
14837;SDS011;7510;59.296;18.106;2022-09-03T09:28:38;0.88;;;0.55;;
14837;SDS011;7510;59.296;18.106;2022-09-03T09:31:05;0.73;;;0.30;;
14837;SDS011;7510;59.296;18.106;2022-09-03T09:33:33;0.85;;;0.52;;
14837;SDS011;7510;59.296;18.106;2022-09-03T09:36:00;0.82;;;0.50;;
14837;SDS011;7510;59.296;18.106;2022-09-03T09:38:30;1.15;;;0.70;;
14837;SDS011;7510;59.296;18.106;2022-09-03T09:41:13;1.70;;;0.70;;
14837;SDS011;7510;59.296;18.106;2022-09-03T09:43:43;1.45;;;0.50;;
14837;SDS011;7510;59.296;18.106;2022-09-03T09:48:51;0.40;;;0.40;;
14837;SDS011;7510;59.296;18.106;2022-09-03T09:51:23;0.60;;;0.60;;
14837;SDS011;7510;59.296;18.106;2022-09-03T09:54:03;0.98;;;0.57;;
14837;SDS011;7510;59.296;18.106;2022-09-03T09:56:38;1.60;;;0.70;;
14837;SDS011;7510;59.296;18.106;2022-09-03T09:59:13;0.50;;;0.50;;
14837;SDS011;7510;59.296;18.106;2022-09-03T10:01:42;1.70;;;0.73;;
14837;SDS011;7510;59.296;18.106;2022-09-03T10:04:14;0.32;;;0.30;;
14837;SDS011;7510;59.296;18.106;2022-09-03T10:06:52;0.68;;;0.40;;
14837;SDS011;7510;59.296;18.106;2022-09-03T10:09:22;1.10;;;0.40;;
14837;SDS011;7510;59.296;18.106;2022-09-03T10:11:49;0.43;;;0.40;;
14837;SDS011;7510;59.296;18.106;2022-09-03T10:20:35;2.15;;;0.50;;
14837;SDS011;7510;59.296;18.106;2022-09-03T10:23:17;0.98;;;0.38;;
14837;SDS011;7510;59.296;18.106;2022-09-03T10:28:21;0.50;;;0.45;;
14837;SDS011;7510;59.296;18.106;2022-09-03T10:33:33;0.75;;;0.47;;
14837;SDS011;7510;59.296;18.106;2022-09-03T10:38:35;0.85;;;0.60;;
14837;SDS011;7510;59.296;18.106;2022-09-03T10:44:03;0.30;;;0.20;;
14837;SDS011;7510;59.296;18.106;2022-09-03T10:46:52;1.38;;;0.25;;
14837;SDS011;7510;59.296;18.106;2022-09-03T10:49:50;0.60;;;0.40;;
14837;SDS011;7510;59.296;18.106;2022-09-03T10:52:23;0.70;;;0.40;;
14837;SDS011;7510;59.296;18.106;2022-09-03T10:57:52;0.17;;;0.17;;
14837;SDS011;7510;59.296;18.106;2022-09-03T11:00:30;1.08;;;0.30;;
14837;SDS011;7510;59.296;18.106;2022-09-03T11:06:03;0.28;;;0.20;;
14837;SDS011;7510;59.296;18.106;2022-09-03T11:13:52;0.60;;;0.32;;
14837;SDS011;7510;59.296;18.106;2022-09-03T11:16:27;0.30;;;0.30;;
14837;SDS011;7510;59.296;18.106;2022-09-03T11:19:06;0.95;;;0.52;;
14837;SDS011;7510;59.296;18.106;2022-09-03T11:21:35;0.28;;;0.28;;
14837;SDS011;7510;59.296;18.106;2022-09-03T11:26:37;0.40;;;0.40;;
14837;SDS011;7510;59.296;18.106;2022-09-03T11:29:12;0.40;;;0.30;;
14837;SDS011;7510;59.296;18.106;2022-09-03T11:34:30;0.20;;;0.20;;
14837;SDS011;7510;59.296;18.106;2022-09-03T11:39:51;0.40;;;0.30;;
14837;SDS011;7510;59.296;18.106;2022-09-03T11:42:29;2.85;;;1.45;;
14837;SDS011;7510;59.296;18.106;2022-09-03T11:45:20;0.40;;;0.30;;
14837;SDS011;7510;59.296;18.106;2022-09-03T11:47:48;0.22;;;0.22;;
14837;SDS011;7510;59.296;18.106;2022-09-03T11:50:16;0.43;;;0.40;;
14837;SDS011;7510;59.296;18.106;2022-09-03T11:52:50;0.13;;;0.10;;
14837;SDS011;7510;59.296;18.106;2022-09-03T11:55:31;0.52;;;0.30;;
14837;SDS011;7510;59.296;18.106;2022-09-03T11:58:43;0.55;;;0.50;;
14837;SDS011;7510;59.296;18.106;2022-09-03T12:00:54;0.40;;;0.30;;
14837;SDS011;7510;59.296;18.106;2022-09-03T12:03:22;0.90;;;0.60;;
14837;SDS011;7510;59.296;18.106;2022-09-03T12:06:03;0.38;;;0.30;;
14837;SDS011;7510;59.296;18.106;2022-09-03T12:08:52;0.60;;;0.50;;
14837;SDS011;7510;59.296;18.106;2022-09-03T12:14:41;0.82;;;0.30;;
14837;SDS011;7510;59.296;18.106;2022-09-03T12:20:01;1.45;;;0.30;;
14837;SDS011;7510;59.296;18.106;2022-09-03T12:22:28;0.50;;;0.50;;
14837;SDS011;7510;59.296;18.106;2022-09-03T12:25:12;0.60;;;0.30;;
14837;SDS011;7510;59.296;18.106;2022-09-03T12:27:39;0.22;;;0.22;;
14837;SDS011;7510;59.296;18.106;2022-09-03T12:30:16;0.30;;;0.30;;
14837;SDS011;7510;59.296;18.106;2022-09-03T12:32:43;0.30;;;0.30;;
14837;SDS011;7510;59.296;18.106;2022-09-03T12:37:35;0.43;;;0.20;;
14837;SDS011;7510;59.296;18.106;2022-09-03T12:40:02;0.10;;;0.10;;
14837;SDS011;7510;59.296;18.106;2022-09-03T12:42:29;0.55;;;0.20;;
14837;SDS011;7510;59.296;18.106;2022-09-03T12:45:04;0.75;;;0.40;;
14837;SDS011;7510;59.296;18.106;2022-09-03T12:47:36;0.73;;;0.50;;
14837;SDS011;7510;59.296;18.106;2022-09-03T12:50:13;0.82;;;0.30;;
14837;SDS011;7510;59.296;18.106;2022-09-03T12:52:49;2.75;;;0.50;;
14837;SDS011;7510;59.296;18.106;2022-09-03T12:55:25;1.98;;;0.50;;
14837;SDS011;7510;59.296;18.106;2022-09-03T13:00:26;0.35;;;0.35;;
14837;SDS011;7510;59.296;18.106;2022-09-03T13:05:32;0.43;;;0.40;;
14837;SDS011;7510;59.296;18.106;2022-09-03T13:08:01;0.45;;;0.40;;
14837;SDS011;7510;59.296;18.106;2022-09-03T13:10:37;0.30;;;0.30;;
14837;SDS011;7510;59.296;18.106;2022-09-03T13:13:20;1.55;;;0.50;;
14837;SDS011;7510;59.296;18.106;2022-09-03T13:19:00;3.35;;;0.40;;
14837;SDS011;7510;59.296;18.106;2022-09-03T13:24:16;1.23;;;0.65;;
14837;SDS011;7510;59.296;18.106;2022-09-03T13:40:58;0.68;;;0.22;;
14837;SDS011;7510;59.296;18.106;2022-09-03T13:46:30;0.75;;;0.47;;
14837;SDS011;7510;59.296;18.106;2022-09-03T13:49:12;0.40;;;0.40;;
14837;SDS011;7510;59.296;18.106;2022-09-03T13:52:05;0.20;;;0.20;;
14837;SDS011;7510;59.296;18.106;2022-09-03T13:54:59;1.67;;;0.60;;
14837;SDS011;7510;59.296;18.106;2022-09-03T13:58:08;0.50;;;0.10;;
14837;SDS011;7510;59.296;18.106;2022-09-03T14:00:42;1.75;;;0.47;;
14837;SDS011;7510;59.296;18.106;2022-09-03T14:05:46;1.33;;;0.35;;
14837;SDS011;7510;59.296;18.106;2022-09-03T14:10:59;0.75;;;0.52;;
14837;SDS011;7510;59.296;18.106;2022-09-03T14:22:20;0.73;;;0.65;;
14837;SDS011;7510;59.296;18.106;2022-09-03T14:24:54;0.63;;;0.50;;
14837;SDS011;7510;59.296;18.106;2022-09-03T14:27:29;0.65;;;0.60;;
14837;SDS011;7510;59.296;18.106;2022-09-03T14:40:29;0.80;;;0.60;;
14837;SDS011;7510;59.296;18.106;2022-09-03T14:43:09;0.22;;;0.22;;
14837;SDS011;7510;59.296;18.106;2022-09-03T14:59:07;1.55;;;0.63;;
14837;SDS011;7510;59.296;18.106;2022-09-03T15:01:51;0.32;;;0.32;;
14837;SDS011;7510;59.296;18.106;2022-09-03T15:04:47;0.22;;;0.22;;
14837;SDS011;7510;59.296;18.106;2022-09-03T15:15:11;0.43;;;0.40;;
14837;SDS011;7510;59.296;18.106;2022-09-03T15:20:27;0.68;;;0.60;;
14837;SDS011;7510;59.296;18.106;2022-09-03T15:25:49;0.22;;;0.22;;
14837;SDS011;7510;59.296;18.106;2022-09-03T15:31:20;2.50;;;0.60;;
14837;SDS011;7510;59.296;18.106;2022-09-03T15:36:48;0.80;;;0.80;;
14837;SDS011;7510;59.296;18.106;2022-09-03T15:42:03;2.67;;;0.90;;
14837;SDS011;7510;59.296;18.106;2022-09-03T15:44:35;1.13;;;1.02;;
14837;SDS011;7510;59.296;18.106;2022-09-03T15:47:27;3.55;;;1.77;;
14837;SDS011;7510;59.296;18.106;2022-09-03T15:49:59;2.78;;;0.50;;
14837;SDS011;7510;59.296;18.106;2022-09-03T15:55:30;1.05;;;0.50;;
14837;SDS011;7510;59.296;18.106;2022-09-03T16:00:49;1.17;;;0.60;;
14837;SDS011;7510;59.296;18.106;2022-09-03T16:03:59;3.55;;;0.73;;
14837;SDS011;7510;59.296;18.106;2022-09-03T16:09:17;0.70;;;0.63;;
14837;SDS011;7510;59.296;18.106;2022-09-03T16:20:29;0.70;;;0.60;;
14837;SDS011;7510;59.296;18.106;2022-09-03T16:25:55;2.35;;;0.65;;
14837;SDS011;7510;59.296;18.106;2022-09-03T16:31:26;0.60;;;0.60;;
14837;SDS011;7510;59.296;18.106;2022-09-03T16:34:00;2.45;;;0.85;;
14837;SDS011;7510;59.296;18.106;2022-09-03T16:37:12;1.83;;;0.80;;
14837;SDS011;7510;59.296;18.106;2022-09-03T17:02:09;1.20;;;1.10;;
14837;SDS011;7510;59.296;18.106;2022-09-03T17:15:59;1.98;;;0.70;;
14837;SDS011;7510;59.296;18.106;2022-09-03T17:26:29;1.02;;;0.90;;
14837;SDS011;7510;59.296;18.106;2022-09-03T17:31:45;1.00;;;0.87;;
14837;SDS011;7510;59.296;18.106;2022-09-03T17:42:55;2.07;;;0.93;;
14837;SDS011;7510;59.296;18.106;2022-09-03T17:48:24;1.47;;;1.23;;
14837;SDS011;7510;59.296;18.106;2022-09-03T17:50:57;2.47;;;1.10;;
14837;SDS011;7510;59.296;18.106;2022-09-03T17:53:37;1.63;;;1.20;;
14837;SDS011;7510;59.296;18.106;2022-09-03T17:56:17;1.17;;;1.07;;
14837;SDS011;7510;59.296;18.106;2022-09-03T17:59:04;1.23;;;1.13;;
14837;SDS011;7510;59.296;18.106;2022-09-03T18:01:36;2.03;;;1.35;;
14837;SDS011;7510;59.296;18.106;2022-09-03T18:07:23;1.33;;;0.83;;
14837;SDS011;7510;59.296;18.106;2022-09-03T18:12:27;1.57;;;1.07;;
14837;SDS011;7510;59.296;18.106;2022-09-03T18:20:50;1.73;;;1.10;;
14837;SDS011;7510;59.296;18.106;2022-09-03T18:26:52;1.27;;;1.17;;
14837;SDS011;7510;59.296;18.106;2022-09-03T18:32:28;3.37;;;1.20;;
14837;SDS011;7510;59.296;18.106;2022-09-03T18:35:13;3.55;;;1.08;;
14837;SDS011;7510;59.296;18.106;2022-09-03T18:37:57;1.30;;;1.20;;
14837;SDS011;7510;59.296;18.106;2022-09-03T18:50:10;1.40;;;1.20;;
14837;SDS011;7510;59.296;18.106;2022-09-03T18:53:07;0.97;;;0.80;;
14837;SDS011;7510;59.296;18.106;2022-09-03T18:56:19;0.90;;;0.90;;
14837;SDS011;7510;59.296;18.106;2022-09-03T19:05:31;1.33;;;0.80;;
14837;SDS011;7510;59.296;18.106;2022-09-03T19:08:23;3.60;;;1.00;;
14837;SDS011;7510;59.296;18.106;2022-09-03T19:11:21;1.63;;;0.90;;
14837;SDS011;7510;59.296;18.106;2022-09-03T19:17:45;0.87;;;0.77;;
14837;SDS011;7510;59.296;18.106;2022-09-03T19:20:34;1.83;;;1.10;;
14837;SDS011;7510;59.296;18.106;2022-09-03T19:23:21;1.17;;;1.07;;
14837;SDS011;7510;59.296;18.106;2022-09-03T19:26:17;2.27;;;1.30;;
14837;SDS011;7510;59.296;18.106;2022-09-03T19:36:19;1.63;;;1.00;;
14837;SDS011;7510;59.296;18.106;2022-09-03T19:39:18;2.27;;;1.33;;
14837;SDS011;7510;59.296;18.106;2022-09-03T19:45:14;1.20;;;1.10;;
14837;SDS011;7510;59.296;18.106;2022-09-03T19:51:16;1.00;;;0.90;;
14837;SDS011;7510;59.296;18.106;2022-09-03T19:54:03;1.23;;;1.03;;
14837;SDS011;7510;59.296;18.106;2022-09-03T19:56:50;1.17;;;1.07;;
14837;SDS011;7510;59.296;18.106;2022-09-03T19:59:41;1.13;;;1.03;;
14837;SDS011;7510;59.296;18.106;2022-09-03T20:02:30;1.37;;;1.10;;
14837;SDS011;7510;59.296;18.106;2022-09-03T20:05:23;1.93;;;1.30;;
14837;SDS011;7510;59.296;18.106;2022-09-03T20:08:08;2.60;;;1.20;;
14837;SDS011;7510;59.296;18.106;2022-09-03T20:10:55;1.17;;;0.80;;
14837;SDS011;7510;59.296;18.106;2022-09-03T20:13:22;2.53;;;0.90;;
14837;SDS011;7510;59.296;18.106;2022-09-03T20:18:53;1.47;;;1.00;;
14837;SDS011;7510;59.296;18.106;2022-09-03T20:21:37;3.03;;;1.13;;
14837;SDS011;7510;59.296;18.106;2022-09-03T20:24:11;1.53;;;1.10;;
14837;SDS011;7510;59.296;18.106;2022-09-03T20:26:59;1.03;;;0.90;;
14837;SDS011;7510;59.296;18.106;2022-09-03T20:30:06;1.97;;;1.20;;
14837;SDS011;7510;59.296;18.106;2022-09-03T20:38:00;1.57;;;1.30;;
14837;SDS011;7510;59.296;18.106;2022-09-03T20:52:16;1.10;;;1.00;;
14837;SDS011;7510;59.296;18.106;2022-09-03T21:00:21;3.17;;;1.67;;
14837;SDS011;7510;59.296;18.106;2022-09-03T21:11:04;1.47;;;1.10;;
14837;SDS011;7510;59.296;18.106;2022-09-03T21:25:00;1.50;;;1.37;;
14837;SDS011;7510;59.296;18.106;2022-09-03T21:27:31;0.70;;;0.67;;
14837;SDS011;7510;59.296;18.106;2022-09-03T21:35:17;1.20;;;1.10;;
14837;SDS011;7510;59.296;18.106;2022-09-03T21:40:47;2.27;;;0.80;;
14837;SDS011;7510;59.296;18.106;2022-09-03T21:43:30;1.23;;;1.03;;
14837;SDS011;7510;59.296;18.106;2022-09-03T21:46:14;1.47;;;1.30;;
14837;SDS011;7510;59.296;18.106;2022-09-03T21:54:04;1.00;;;1.00;;
14837;SDS011;7510;59.296;18.106;2022-09-03T21:56:47;3.27;;;1.40;;